createdAt,value
2023-03-15T05:48:08.870Z,100193.34
2023-03-15T05:50:35.277Z,100209.38
2023-03-15T05:53:02.085Z,100220.44
2023-03-15T05:55:28.484Z,100226.19
2023-03-15T05:57:54.907Z,100227.59
2023-03-15T06:00:21.831Z,100229.41
2023-03-15T06:02:48.290Z,100243.31
2023-03-15T06:05:14.803Z,100245.56
2023-03-15T06:07:41.633Z,100245.34
2023-03-15T06:10:08.240Z,100243.06
2023-03-15T06:12:34.620Z,100256.78
2023-03-15T06:15:01.030Z,100257.16
2023-03-15T06:17:27.463Z,100257.78
2023-03-15T06:19:53.846Z,100264.13
2023-03-15T06:22:20.659Z,100266.97
2023-03-15T06:24:47.240Z,100275.34
2023-03-15T06:27:13.671Z,100278.00
2023-03-15T06:29:42.652Z,100272.25
2023-03-15T06:32:09.250Z,100281.47
2023-03-15T06:34:35.637Z,100284.94
2023-03-15T06:37:02.016Z,100289.84
2023-03-15T06:39:28.387Z,100283.50
2023-03-15T06:41:58.499Z,100291.50
2023-03-15T06:44:24.950Z,100299.50
2023-03-15T06:46:51.379Z,100303.81
2023-03-15T06:49:17.792Z,100312.81
2023-03-15T06:51:45.444Z,100320.63
2023-03-15T06:54:11.869Z,100317.75
2023-03-15T06:56:38.536Z,100325.75
2023-03-15T06:59:05.252Z,100324.13
2023-03-15T07:01:31.726Z,100330.06
2023-03-15T07:03:58.171Z,100337.06
2023-03-15T07:06:24.525Z,100336.25
2023-03-15T07:08:50.911Z,100331.72
2023-03-15T07:11:18.731Z,100338.72
2023-03-15T07:13:45.128Z,100344.06
2023-03-15T07:16:11.670Z,100341.19
2023-03-15T07:18:38.099Z,100344.50
2023-03-15T07:21:05.176Z,100358.66
2023-03-15T07:23:31.758Z,100357.63
2023-03-15T07:25:58.249Z,100354.56
2023-03-15T07:28:25.293Z,100367.91
2023-03-15T07:30:59.144Z,100361.38
2023-03-15T07:33:26.239Z,100362.81
2023-03-15T07:35:56.133Z,100371.63
2023-03-15T07:38:23.780Z,100371.28
2023-03-15T07:40:50.240Z,100387.09
2023-03-15T07:43:16.601Z,100391.00
2023-03-15T07:45:43.061Z,100388.59
2023-03-15T07:48:09.531Z,100410.19
2023-03-15T07:50:37.142Z,100415.75
2023-03-15T07:53:04.108Z,100408.56
2023-03-15T07:55:31.566Z,100412.31
2023-03-15T07:57:57.934Z,100413.56
2023-03-15T08:00:24.362Z,100410.50
2023-03-15T08:02:50.771Z,100409.28
2023-03-15T08:05:19.082Z,100411.59
2023-03-15T08:07:48.998Z,100408.31
2023-03-15T08:10:16.395Z,100411.63
2023-03-15T08:12:43.176Z,100419.25
2023-03-15T08:15:16.265Z,100414.72
2023-03-15T08:17:42.813Z,100422.72
2023-03-15T08:20:11.713Z,100428.50
2023-03-15T08:22:38.600Z,100421.75
2023-03-15T08:25:05.234Z,100426.72
2023-03-15T08:27:31.640Z,100416.47
2023-03-15T08:30:00.351Z,100424.09
2023-03-15T08:32:26.884Z,100431.72
2023-03-15T08:34:53.332Z,100434.00
2023-03-15T08:37:20.068Z,100440.44
2023-03-15T08:39:46.458Z,100446.63
2023-03-15T08:42:13.556Z,100451.00
2023-03-15T08:44:39.969Z,100454.53
2023-03-15T08:47:06.442Z,100459.91
2023-03-15T08:49:32.884Z,100460.78
2023-03-15T08:51:59.274Z,100466.31
2023-03-15T08:54:27.480Z,100474.56
2023-03-15T08:56:53.931Z,100478.13
2023-03-15T08:59:31.365Z,100487.19
2023-03-15T09:01:59.679Z,100494.22
2023-03-15T09:04:26.151Z,100494.06
2023-03-15T09:06:53.830Z,100499.84
2023-03-15T09:09:20.187Z,100495.56
2023-03-15T09:11:46.564Z,100500.53
2023-03-15T09:14:12.925Z,100503.88
2023-03-15T09:16:39.314Z,100509.03
2023-03-15T09:19:05.698Z,100508.63
2023-03-15T09:21:32.041Z,100519.56
2023-03-15T09:23:58.467Z,100509.28
2023-03-15T09:26:24.892Z,100516.53
2023-03-15T09:28:51.355Z,100514.72
2023-03-15T09:31:17.767Z,100515.56
2023-03-15T09:33:46.657Z,100521.72
2023-03-15T09:36:13.036Z,100530.16
2023-03-15T09:38:39.458Z,100534.47
2023-03-15T09:41:06.395Z,100533.81
2023-03-15T09:43:59.171Z,100529.44
2023-03-15T09:46:27.947Z,100540.75
2023-03-15T09:48:58.384Z,100546.91
2023-03-15T09:51:24.711Z,100536.31
2023-03-15T09:53:56.559Z,100537.91
2023-03-15T09:56:25.485Z,100527.13
2023-03-15T09:58:54.119Z,100537.81
2023-03-15T10:01:22.700Z,100538.16
2023-03-15T10:03:50.549Z,100537.31
2023-03-15T10:06:30.424Z,100540.19
2023-03-15T10:08:58.248Z,100540.53
2023-03-15T10:11:47.927Z,100542.44
2023-03-15T10:14:14.278Z,100545.09
2023-03-15T10:16:47.942Z,100541.81
2023-03-15T10:19:32.665Z,100543.91
2023-03-15T10:22:15.939Z,100540.59
2023-03-15T10:25:01.181Z,100541.84
2023-03-15T10:27:49.358Z,100547.66
2023-03-15T10:30:20.509Z,100538.16
2023-03-15T10:32:49.679Z,100550.56
2023-03-15T10:35:17.526Z,100547.25
2023-03-15T10:37:44.203Z,100541.88
2023-03-15T10:40:16.013Z,100552.03
2023-03-15T10:42:44.592Z,100560.31
2023-03-15T10:45:12.509Z,100559.47
2023-03-15T10:47:50.461Z,100565.84
2023-03-15T10:50:27.858Z,100574.28
2023-03-15T10:52:56.618Z,100568.50
2023-03-15T10:55:29.749Z,100557.16
2023-03-15T10:57:57.372Z,100563.56
2023-03-15T11:00:26.890Z,100562.13
2023-03-15T11:03:14.368Z,100568.53
2023-03-15T11:05:45.309Z,100572.22
2023-03-15T11:08:15.994Z,100575.25
2023-03-15T11:10:44.349Z,100567.13
2023-03-15T11:13:29.967Z,100578.38
2023-03-15T11:15:56.372Z,100583.88
2023-03-15T11:18:28.099Z,100597.28
2023-03-15T11:20:56.326Z,100615.63
2023-03-15T11:23:26.263Z,100610.94
2023-03-15T11:25:53.438Z,100609.78
2023-03-15T11:28:22.389Z,100604.50
2023-03-15T11:30:48.963Z,100605.38
2023-03-15T11:33:25.959Z,100605.69
2023-03-15T11:35:52.940Z,100597.25
2023-03-15T11:38:35.573Z,100600.78
2023-03-15T11:41:14.929Z,100600.19
2023-03-15T11:43:56.689Z,100602.63
2023-03-15T11:46:29.427Z,100606.28
2023-03-15T11:49:00.808Z,100599.19
2023-03-15T11:51:28.518Z,100597.06
2023-03-15T11:54:04.507Z,100592.47
2023-03-15T11:56:46.261Z,100597.81
2023-03-15T11:59:21.286Z,100598.13
2023-03-15T12:01:49.750Z,100593.50
2023-03-15T12:04:25.316Z,100600.03
2023-03-15T12:06:55.267Z,100594.97
2023-03-15T12:09:33.843Z,100598.59
2023-03-15T12:12:02.099Z,100600.94
2023-03-15T12:14:32.547Z,100590.91
2023-03-15T12:17:17.809Z,100596.13
2023-03-15T12:19:44.236Z,100579.38
2023-03-15T12:22:17.612Z,100582.50
2023-03-15T12:24:46.079Z,100589.97
2023-03-15T12:27:17.520Z,100594.94
2023-03-15T12:29:48.409Z,100581.06
2023-03-15T12:32:16.200Z,100588.84
2023-03-15T12:34:42.638Z,100593.28
2023-03-15T12:37:13.546Z,100591.94
2023-03-15T12:39:40.030Z,100579.78
2023-03-15T12:42:06.918Z,100590.47
2023-03-15T12:44:33.241Z,100601.75
2023-03-15T12:47:01.219Z,100590.63
2023-03-15T12:49:34.485Z,100583.03
2023-03-15T12:52:27.345Z,100586.06
2023-03-15T12:55:12.228Z,100594.28
2023-03-15T12:57:54.003Z,100586.19
2023-03-15T13:00:22.007Z,100608.63
2023-03-15T13:02:49.891Z,100604.03
2023-03-15T13:05:18.673Z,100601.91
2023-03-15T13:07:54.108Z,100614.34
2023-03-15T13:10:23.240Z,100630.09
2023-03-15T13:12:58.757Z,100607.66
2023-03-15T13:15:28.462Z,100642.50
2023-03-15T13:18:02.135Z,100665.75
2023-03-15T13:20:42.277Z,100679.72
2023-03-15T13:23:15.066Z,100667.00
2023-03-15T13:25:47.454Z,100686.56
2023-03-15T13:28:24.608Z,100687.22
2023-03-15T13:30:54.624Z,100680.78
2023-03-15T13:33:24.570Z,100680.34
2023-03-15T13:36:02.097Z,100698.34
2023-03-15T13:38:30.941Z,100690.38
2023-03-15T13:40:58.756Z,100693.38
2023-03-15T13:43:29.988Z,100686.41
2023-03-15T13:45:56.812Z,100699.94
2023-03-15T13:48:23.559Z,100704.13
2023-03-15T13:50:50.538Z,100700.69
2023-03-15T13:53:35.665Z,100710.03
2023-03-15T13:56:10.070Z,100717.72
2023-03-15T13:58:38.369Z,100720.88
2023-03-15T14:01:06.344Z,100714.69
2023-03-15T14:03:32.905Z,100726.03
2023-03-15T14:05:59.704Z,100715.50
2023-03-15T14:08:28.503Z,100722.31
2023-03-15T14:11:02.263Z,100727.47
2023-03-15T14:13:35.865Z,100728.91
2023-03-15T14:16:06.679Z,100734.66
2023-03-15T14:18:33.124Z,100735.88
2023-03-15T14:21:07.341Z,100731.06
2023-03-15T14:23:38.954Z,100734.38
2023-03-15T14:26:05.409Z,100731.69
2023-03-15T14:28:32.578Z,100735.41
2023-03-15T14:30:59.584Z,100740.34
2023-03-15T14:33:39.723Z,100736.84
2023-03-15T14:36:09.949Z,100726.88
2023-03-15T14:38:38.011Z,100725.03
2023-03-15T17:49:00.219Z,100884.84
2023-03-15T17:51:34.266Z,100880.50
2023-03-15T17:54:01.265Z,100888.56
2023-03-15T17:56:28.474Z,100885.06
2023-03-15T17:58:54.969Z,100887.75
2023-03-15T18:01:27.435Z,100891.44
2023-03-15T18:03:54.469Z,100888.53
2023-03-15T18:06:21.798Z,100901.13
2023-03-15T18:08:48.552Z,100890.56
2023-03-15T18:11:23.631Z,100889.75
2023-03-15T18:13:50.092Z,100900.66
2023-03-15T18:16:16.549Z,100893.84
2023-03-15T18:18:43.064Z,100897.53
2023-03-15T18:21:27.743Z,100899.56
2023-03-15T18:23:54.423Z,100893.75
2023-03-15T18:26:21.248Z,100902.81
2023-03-15T18:28:49.045Z,100906.47
2023-03-15T18:31:17.709Z,100911.81
2023-03-15T18:33:44.540Z,100912.19
2023-03-15T18:36:11.677Z,100908.84
2023-03-15T18:38:38.599Z,100910.88
2023-03-15T18:41:12.088Z,100921.09
2023-03-15T18:43:38.475Z,100916.28
2023-03-15T18:46:04.914Z,100920.28
2023-03-15T18:48:40.499Z,100922.50
2023-03-15T18:51:09.490Z,100922.22
2023-03-15T18:53:35.866Z,100926.88
2023-03-15T18:56:02.691Z,100919.78
2023-03-15T18:58:29.067Z,100918.28
2023-03-15T19:00:55.572Z,100910.19
2023-03-15T19:03:22.028Z,100913.81
2023-03-15T19:05:48.377Z,100910.47
2023-03-15T19:08:14.764Z,100924.41
2023-03-15T19:10:42.453Z,100916.50
2023-03-15T19:13:08.834Z,100930.66
2023-03-15T19:15:35.188Z,100918.41
2023-03-15T19:18:02.301Z,100920.16
2023-03-15T19:20:28.673Z,100929.31
2023-03-15T19:22:55.081Z,100925.09
2023-03-15T19:25:21.462Z,100929.94
2023-03-15T19:27:47.934Z,100925.88
2023-03-15T19:30:18.184Z,100928.84
2023-03-15T19:32:45.834Z,100936.13
2023-03-15T19:35:12.305Z,100941.75
2023-03-15T19:37:39.066Z,100948.19
2023-03-15T19:40:09.034Z,100947.56
2023-03-15T19:42:35.431Z,100945.00
2023-03-15T19:45:01.884Z,100957.44
2023-03-15T19:47:28.291Z,100953.66
2023-03-15T19:49:55.170Z,100951.69
2023-03-15T19:52:21.579Z,100953.59
2023-03-15T19:54:48.376Z,100957.63
2023-03-15T19:57:14.909Z,100962.03
2023-03-15T19:59:41.656Z,100959.91
2023-03-15T20:02:10.475Z,100964.31
2023-03-15T20:04:36.903Z,100964.00
2023-03-15T20:07:03.487Z,100965.94
2023-03-15T20:09:29.907Z,100970.28
2023-03-15T20:11:56.300Z,100975.69
2023-03-15T20:14:25.160Z,100981.72
2023-03-15T20:16:51.562Z,100978.28
2023-03-15T20:19:17.982Z,100973.63
2023-03-15T20:21:44.900Z,100972.50
2023-03-15T20:24:11.433Z,100980.38
2023-03-15T20:26:37.872Z,100982.06
2023-03-15T20:29:04.306Z,100986.25
2023-03-15T20:31:30.796Z,100985.78
2023-03-15T20:33:57.451Z,100988.97
2023-03-15T20:36:23.958Z,101000.13
2023-03-15T20:38:50.658Z,101000.66
2023-03-15T20:41:18.769Z,101000.50
2023-03-15T20:43:46.409Z,101002.69
2023-03-15T20:46:13.680Z,101010.34
2023-03-15T20:48:40.125Z,101008.03
2023-03-15T20:51:06.656Z,101012.88
2023-03-15T20:53:34.113Z,101013.22
2023-03-15T20:56:00.600Z,101012.72
2023-03-15T20:58:27.101Z,101017.22
2023-03-15T21:01:02.600Z,101021.22
2023-03-15T21:03:31.294Z,101015.06
2023-03-15T21:05:57.733Z,101019.91
2023-03-15T21:08:24.353Z,101022.06
2023-03-15T21:10:50.719Z,101028.38
2023-03-15T21:13:17.404Z,101025.41
2023-03-15T21:15:47.217Z,101029.09
2023-03-15T21:18:17.983Z,101018.75
2023-03-15T21:20:44.571Z,101023.59
2023-03-15T21:23:11.364Z,101023.09
2023-03-15T21:25:38.137Z,101020.44
2023-03-15T21:28:04.700Z,101023.44
2023-03-15T21:30:31.208Z,101021.94
2023-03-15T21:32:57.783Z,101024.75
2023-03-15T21:35:25.550Z,101025.09
2023-03-15T21:37:51.925Z,101016.47
2023-03-15T21:40:18.304Z,101018.63
2023-03-15T21:42:47.583Z,101023.94
2023-03-15T21:45:14.143Z,101027.75
2023-03-15T21:47:40.591Z,101020.13
2023-03-15T21:50:07.319Z,101022.09
2023-03-15T21:52:33.906Z,101021.47
2023-03-15T21:55:01.147Z,101020.09
2023-03-15T21:57:27.637Z,101030.06
2023-03-15T21:59:55.526Z,101022.25
2023-03-15T22:02:22.000Z,101024.22
2023-03-15T22:04:48.426Z,101021.09
2023-03-15T22:07:14.907Z,101018.75
2023-03-15T22:09:43.299Z,101022.75
2023-03-15T22:12:09.939Z,101026.72
2023-03-15T22:14:36.374Z,101022.56
2023-03-15T22:17:05.009Z,101025.75
2023-03-15T22:19:32.098Z,101028.88
2023-03-15T22:21:58.782Z,101030.03
2023-03-15T22:24:25.376Z,101032.34
2023-03-15T22:26:53.159Z,101026.38
2023-03-15T22:29:21.776Z,101033.03
2023-03-15T22:31:48.163Z,101038.63
2023-03-15T22:34:14.545Z,101033.66
2023-03-15T22:36:42.795Z,101034.97
2023-03-15T22:39:09.571Z,101030.13
2023-03-15T22:41:35.980Z,101027.81
2023-03-15T22:44:02.373Z,101032.47
2023-03-15T22:46:34.893Z,101029.31
2023-03-15T22:49:02.262Z,101040.25
2023-03-15T22:51:30.802Z,101039.56
2023-03-15T22:53:57.175Z,101040.91
2023-03-15T22:56:23.631Z,101033.25
2023-03-15T22:58:50.815Z,101037.22
2023-03-15T23:01:17.219Z,101034.88
2023-03-15T23:03:43.598Z,101038.50
2023-03-15T23:06:09.994Z,101035.53
2023-03-15T23:08:36.439Z,101045.47
2023-03-15T23:11:03.915Z,101043.81
2023-03-15T23:13:30.311Z,101045.81
2023-03-15T23:15:56.975Z,101043.44
2023-03-15T23:18:25.784Z,101048.75
2023-03-15T23:20:52.306Z,101035.81
2023-03-15T23:23:18.698Z,101042.09
2023-03-15T23:25:46.015Z,101048.41
2023-03-15T23:28:13.903Z,101049.72
2023-03-15T23:30:40.361Z,101048.19
2023-03-15T23:33:08.446Z,101053.03
2023-03-15T23:35:35.289Z,101063.63
2023-03-15T23:38:02.483Z,101051.66
2023-03-15T23:40:30.270Z,101054.50
2023-03-15T23:42:59.120Z,101053.97
2023-03-15T23:45:27.708Z,101066.38
2023-03-15T23:47:55.459Z,101065.72
2023-03-15T23:50:26.097Z,101063.25
2023-03-15T23:52:53.974Z,101070.50
2023-03-15T23:55:20.709Z,101081.97
2023-03-15T23:57:47.411Z,101072.50
